LIBN/LCC METAR and TAF weather

Enter ICAO airport designator
Station Type Date Time Source
LIBN METAR 2020/01/18 12:55 UTC NOAA

LIBN 181255Z 23008KT CAVOK 13/07 Q1021 RMK SCT SCT200 VIS MIN 9999 WIND THR14 23008KT WIND THR32 23010KT BLU


Station Type Date Time Source
LIBN Decoded METAR 2020/01/18 12:55 UTC NOAA

Lecce, Italy (LIBN) 40-14N 018-09E 61M
Jan 18, 2020 - 07:55 AM EST / 2020.01.18 1255 UTC
Wind: from the SW (230 degrees) at 9 MPH (8 KT):0
Visibility: greater than 7 mile(s):0
Temperature: 55 F (13 C)
Dew Point: 44 F (7 C)
Relative Humidity: 66%
Pressure (altimeter): 30.15 in. Hg (1021 hPa)
ob: LIBN 181255Z 23008KT CAVOK 13/07 Q1021 RMK SCT SCT200 VIS MIN 9999 WIND THR14 23008KT WIND THR32 23010KT BLU
cycle: 13

Station Type Date Time Source
LIBN TAF 2019/10/29 12:24 UTC NOAA

TAF TAF LIBN 291100Z 2912/2924 20005KT 9999 FEW025
BECMG 2917/2918 3000 BR

Example: see airport list